This is the latest recevied weather packets stored in our database for station/object F4FSZ-11. If no packets are shown the sender has not sent any weather packets the latest 10 day(s).
| Time | Temp. | Humidity | Pressure | Rain* | Wind** | Luminosity | Snow |
|---|---|---|---|---|---|---|---|
| 1777908829 | 15° C | 88% | 1007.6 hPa | - | - | - | - |
| 1777907929 | 15° C | 86% | 1007.7 hPa | - | - | - | - |
| 1777907029 | 15° C | 88% | 1007.8 hPa | - | - | - | - |
| 1777906129 | 15.56° C | 83% | 1007.7 hPa | - | - | - | - |
| 1777905236 | 16.67° C | 75% | 1007.7 hPa | - | - | - | - |
| 1777904329 | 17.22° C | 72% | 1007.6 hPa | - | - | - | - |
| 1777903429 | 17.78° C | 70% | 1007.9 hPa | - | - | - | - |
| 1777902529 | 18.33° C | 65% | 1007.8 hPa | - | - | - | - |
| 1777901629 | 18.33° C | 60% | 1007.7 hPa | - | - | - | - |
| 1777900729 | 17.78° C | 63% | 1007.7 hPa | - | - | - | - |
| 1777899829 | 17.22° C | 63% | 1007.7 hPa | - | - | - | - |
| 1777898029 | 19.44° C | 56% | 1008.1 hPa | - | - | - | - |
| 1777896229 | 21.11° C | 50% | 1007.8 hPa | - | - | - | - |
| 1777894429 | 20.56° C | 52% | 1007.9 hPa | - | - | - | - |
| 1777892629 | 18.89° C | 55% | 1008.4 hPa | - | - | - | - |
| 1777890829 | 18.89° C | 61% | 1008.5 hPa | - | - | - | - |
| 1777889029 | 17.78° C | 64% | 1008.7 hPa | - | - | - | - |
| 1777887228 | 17.78° C | 61% | 1008.6 hPa | - | - | - | - |
| 1777885428 | 18.33° C | 59% | 1008.5 hPa | - | - | - | - |
| 1777883628 | 18.33° C | 60% | 1008.5 hPa | - | - | - | - |
| 1777882728 | 16.67° C | 63% | 1008.7 hPa | - | - | - | - |
| 1777881828 | 16.67° C | 66% | 1008.8 hPa | - | - | - | - |
| 1777880027 | 16.11° C | 65% | 1008.5 hPa | - | - | - | - |
| 1777879127 | 15.56° C | 65% | 1008.5 hPa | - | - | - | - |
| 1777878226 | 15.56° C | 69% | 1008.3 hPa | - | - | - | - |
* Rain since midnight (hover to see other rain measurements)
** Current wind speed in m/s (hover to see current wind gust speed)